Time;durP1;ratioP1;P1;durP2;ratioP2;P2;SDS_P1;SDS_P2;PMS_P1;PMS_P2;Temp;Humidity;BMP_temperature;BMP_pressure;BME280_temperature;BME280_humidity;BME280_pressure;Samples;Min_cycle;Max_cycle;Signal;HPM_P1;HPM_P2
2021/10/14 00:01:34;;;;;;;;;;;;;;;5.53;60.27;96454.59;5023464;28;20010;-69
2021/10/14 00:03:59;;;;;;;;;;;;;;;5.79;59.94;96446.34;5024301;28;19925;-68
2021/10/14 00:06:25;;;;;;;;;;;;;;;5.74;59.73;96451.97;5025218;28;19999;-67
2021/10/14 00:08:50;;;;;;;;;;;;;;;5.97;59.93;96438.66;5024321;28;20191;-67
2021/10/14 00:11:15;;;;;;;;;;;;;;;5.68;60.43;96447.22;5022615;28;19948;-67
2021/10/14 00:13:40;;;;;;;;;;;;;;;5.35;61.39;96449.84;5024229;28;20564;-67
2021/10/14 00:16:06;;;;;;;;;;;;;;;5.10;61.76;96443.91;5024176;28;19917;-67
2021/10/14 00:18:31;;;;;;;;;;;;;;;5.25;61.83;96436.56;5024153;28;20012;-68
2021/10/14 00:20:56;;;;;;;;;;;;;;;4.77;63.48;96441.19;5006094;28;19955;-69
2021/10/14 00:23:21;;;;;;;;;;;;;;;4.38;64.34;96432.75;5023825;28;19935;-69
2021/10/14 00:25:47;;;;;;;;;;;;;;;4.60;64.08;96428.47;5024513;28;19955;-67
2021/10/14 00:28:12;;;;;;;;;;;;;;;4.88;63.14;96421.84;5023803;28;19947;-67
2021/10/14 00:30:37;;;;;;;;;;;;;;;4.83;62.90;96426.66;5023185;28;19913;-68
2021/10/14 00:33:02;;;;;;;;;;;;;;;5.31;62.52;96425.47;5024090;28;19921;-67
2021/10/14 00:35:28;;;;;;;;;;;;;;;5.20;62.49;96421.09;5023812;28;19928;-68
2021/10/14 00:37:53;;;;;;;;;;;;;;;4.43;64.12;96420.91;5023892;28;19913;-69
2021/10/14 00:40:18;;;;;;;;;;;;;;;4.94;63.44;96417.88;5022360;28;20354;-69
2021/10/14 00:42:44;;;;;;;;;;;;;;;5.00;62.76;96414.72;5024130;28;20115;-69
2021/10/14 00:45:09;;;;;;;;;;;;;;;4.69;63.69;96427.72;5022461;28;20336;-67
2021/10/14 00:47:35;;;;;;;;;;;;;;;4.97;62.86;96413.19;5023473;28;20359;-68
2021/10/14 00:50:00;;;;;;;;;;;;;;;5.58;61.29;96402.25;5023795;28;19925;-68
2021/10/14 00:52:25;;;;;;;;;;;;;;;5.60;60.73;96400.28;5023223;28;20267;-69
2021/10/14 00:54:51;;;;;;;;;;;;;;;5.10;62.08;96404.31;5022384;28;20212;-67
2021/10/14 00:57:16;;;;;;;;;;;;;;;5.19;61.85;96408.84;5008522;28;19921;-68
2021/10/14 00:59:42;;;;;;;;;;;;;;;4.93;62.37;96409.13;5023497;28;20197;-68
2021/10/14 01:02:07;;;;;;;;;;;;;;;5.16;62.22;96402.97;5023337;28;19917;-68
2021/10/14 01:04:32;;;;;;;;;;;;;;;5.88;59.20;96395.34;5023383;28;19998;-69
2021/10/14 01:06:58;;;;;;;;;;;;;;;5.43;60.50;96394.59;5023390;28;19921;-68
2021/10/14 01:09:23;;;;;;;;;;;;;;;5.33;61.46;96394.53;5022370;28;19963;-69
2021/10/14 01:11:48;;;;;;;;;;;;;;;4.47;63.82;96389.00;5021184;28;19921;-69
2021/10/14 01:14:13;;;;;;;;;;;;;;;4.88;62.58;96395.47;5023126;28;19986;-69
2021/10/14 01:16:39;;;;;;;;;;;;;;;4.10;65.77;96401.47;5022591;28;20259;-68
2021/10/14 01:19:05;;;;;;;;;;;;;;;4.07;65.96;96401.69;5022772;28;19966;-68
2021/10/14 01:21:30;;;;;;;;;;;;;;;4.82;62.71;96398.56;5022133;28;19917;-69
2021/10/14 01:23:56;;;;;;;;;;;;;;;5.00;62.58;96396.25;5021262;28;20370;-69
2021/10/14 01:26:21;;;;;;;;;;;;;;;4.72;63.23;96406.38;5023019;28;20210;-69
2021/10/14 01:28:46;;;;;;;;;;;;;;;4.75;63.14;96403.50;5023127;28;19955;-69
2021/10/14 01:31:11;;;;;;;;;;;;;;;4.40;63.93;96404.47;5022710;28;19929;-69
2021/10/14 01:33:37;;;;;;;;;;;;;;;4.54;63.54;96392.84;5023055;28;19921;-69
2021/10/14 01:36:03;;;;;;;;;;;;;;;4.34;64.66;96405.78;5022919;28;20435;-69
2021/10/14 01:38:28;;;;;;;;;;;;;;;3.87;66.44;96397.94;5022920;28;19920;-69
2021/10/14 01:40:53;;;;;;;;;;;;;;;4.27;64.69;96405.44;5022634;28;19921;-69
2021/10/14 01:43:20;;;;;;;;;;;;;;;4.23;65.33;96397.88;5022368;28;20378;-69
2021/10/14 01:45:45;;;;;;;;;;;;;;;4.62;63.69;96394.91;5005390;28;20387;-69
2021/10/14 01:48:10;;;;;;;;;;;;;;;4.67;63.25;96403.28;5022743;28;19925;-69
2021/10/14 01:50:36;;;;;;;;;;;;;;;5.05;61.98;96396.75;5023239;28;19917;-69
2021/10/14 01:53:01;;;;;;;;;;;;;;;4.50;63.72;96396.69;5022799;28;20516;-69
2021/10/14 01:55:26;;;;;;;;;;;;;;;4.49;63.86;96398.47;5022788;28;20030;-69
2021/10/14 01:57:51;;;;;;;;;;;;;;;4.62;63.39;96395.72;5023086;28;19917;-67
2021/10/14 02:00:17;;;;;;;;;;;;;;;4.58;63.19;96399.56;5022726;28;20440;-67
2021/10/14 02:02:42;;;;;;;;;;;;;;;4.44;63.86;96393.59;5023335;28;19948;-69
2021/10/14 02:05:07;;;;;;;;;;;;;;;4.65;62.57;96390.22;5022869;28;19982;-69
2021/10/14 02:07:33;;;;;;;;;;;;;;;4.41;63.69;96387.69;5022422;28;20004;-69
2021/10/14 02:09:58;;;;;;;;;;;;;;;4.53;62.64;96389.38;5023169;28;20038;-69
2021/10/14 02:12:25;;;;;;;;;;;;;;;4.29;63.44;96386.88;5022331;28;20303;-69
2021/10/14 02:14:50;;;;;;;;;;;;;;;3.98;65.63;96383.97;5023110;28;19952;-69
2021/10/14 02:17:15;;;;;;;;;;;;;;;3.97;64.91;96391.03;5022345;28;19967;-69
2021/10/14 02:19:40;;;;;;;;;;;;;;;4.16;64.84;96381.72;5022752;28;20082;-69
2021/10/14 02:22:06;;;;;;;;;;;;;;;4.79;61.86;96375.06;5021292;28;19921;-69
2021/10/14 02:24:31;;;;;;;;;;;;;;;4.88;62.60;96376.13;5023701;28;20337;-69
2021/10/14 02:26:56;;;;;;;;;;;;;;;4.76;62.69;96372.69;5027075;28;19959;-69
2021/10/14 02:29:21;;;;;;;;;;;;;;;4.69;62.92;96370.53;5026662;28;20224;-69
2021/10/14 02:31:47;;;;;;;;;;;;;;;4.13;65.20;96368.75;5026757;28;19918;-69
2021/10/14 02:34:12;;;;;;;;;;;;;;;3.98;64.76;96365.53;5025670;28;19913;-69
2021/10/14 02:36:37;;;;;;;;;;;;;;;4.03;64.94;96366.84;5026335;28;20352;-69
2021/10/14 02:39:03;;;;;;;;;;;;;;;4.33;63.83;96360.13;5025014;28;19918;-69
2021/10/14 02:41:28;;;;;;;;;;;;;;;4.04;64.23;96367.66;5025234;28;19928;-69
2021/10/14 02:43:54;;;;;;;;;;;;;;;3.49;66.46;96368.28;5026581;28;19952;-70
2021/10/14 02:46:19;;;;;;;;;;;;;;;3.66;65.35;96354.69;5026812;28;19937;-69
2021/10/14 02:48:44;;;;;;;;;;;;;;;3.14;67.21;96365.47;5025907;28;19928;-69
2021/10/14 02:51:09;;;;;;;;;;;;;;;3.34;66.94;96357.91;5026381;28;19921;-67
2021/10/14 02:53:34;;;;;;;;;;;;;;;3.53;66.60;96359.19;5026274;28;20016;-68
2021/10/14 02:56:00;;;;;;;;;;;;;;;3.71;65.43;96359.59;5025677;28;19921;-67
2021/10/14 02:58:25;;;;;;;;;;;;;;;4.12;63.39;96362.63;5026440;28;19921;-67
2021/10/14 03:00:50;;;;;;;;;;;;;;;4.35;63.57;96356.56;5026030;28;19978;-67
2021/10/14 03:03:15;;;;;;;;;;;;;;;4.39;63.15;96363.25;5026105;28;19921;-67
2021/10/14 03:05:41;;;;;;;;;;;;;;;4.22;62.89;96354.03;5025961;28;20247;-69
2021/10/14 03:08:06;;;;;;;;;;;;;;;4.59;62.48;96356.41;5025979;28;19994;-69
2021/10/14 03:10:31;;;;;;;;;;;;;;;5.00;60.32;96354.03;5026347;28;19917;-69
2021/10/14 03:12:57;;;;;;;;;;;;;;;4.67;60.75;96356.66;5025632;28;20075;-69
2021/10/14 03:15:22;;;;;;;;;;;;;;;4.80;61.01;96361.75;5024083;28;19993;-68
2021/10/14 03:17:47;;;;;;;;;;;;;;;4.81;60.99;96355.53;5025147;28;20001;-69
2021/10/14 03:20:12;;;;;;;;;;;;;;;5.09;59.89;96353.34;5024557;28;20059;-69
2021/10/14 03:22:38;;;;;;;;;;;;;;;4.55;61.27;96352.31;5024980;28;19974;-69
2021/10/14 03:25:03;;;;;;;;;;;;;;;4.97;59.75;96336.66;5024192;28;20657;-67
2021/10/14 03:27:28;;;;;;;;;;;;;;;5.32;58.21;96345.31;5022916;28;20355;-68
2021/10/14 03:29:54;;;;;;;;;;;;;;;5.54;57.34;96327.69;5024610;28;20323;-69
2021/10/14 03:32:19;;;;;;;;;;;;;;;5.18;57.97;96330.63;5024191;28;19993;-69
2021/10/14 03:34:44;;;;;;;;;;;;;;;4.81;59.09;96330.94;5022827;28;19976;-69
2021/10/14 03:37:09;;;;;;;;;;;;;;;4.52;60.43;96332.31;5024005;28;19987;-69
2021/10/14 03:39:35;;;;;;;;;;;;;;;4.61;60.61;96340.44;5024283;28;20079;-69
2021/10/14 03:42:00;;;;;;;;;;;;;;;4.83;59.71;96335.13;5024452;28;19921;-67
2021/10/14 03:44:25;;;;;;;;;;;;;;;4.88;60.04;96332.13;5024046;28;19922;-68
2021/10/14 03:46:50;;;;;;;;;;;;;;;5.03;58.91;96330.03;5024433;28;20473;-67
2021/10/14 03:49:16;;;;;;;;;;;;;;;5.00;59.40;96329.47;5024329;28;19917;-67
2021/10/14 03:51:41;;;;;;;;;;;;;;;4.50;60.48;96334.25;5023999;28;19928;-67
2021/10/14 03:54:06;;;;;;;;;;;;;;;4.68;59.99;96336.38;5024283;28;20092;-67
2021/10/14 03:56:31;;;;;;;;;;;;;;;3.71;63.13;96340.34;5024262;28;19921;-69
2021/10/14 03:58:57;;;;;;;;;;;;;;;3.92;63.17;96338.66;5024198;28;20343;-69
2021/10/14 04:01:22;;;;;;;;;;;;;;;4.02;62.86;96330.88;5024166;28;19928;-69
2021/10/14 04:03:47;;;;;;;;;;;;;;;3.72;63.77;96336.72;5023704;28;19917;-69
2021/10/14 04:06:12;;;;;;;;;;;;;;;4.16;62.80;96335.13;5023828;28;19917;-69
2021/10/14 04:08:38;;;;;;;;;;;;;;;4.34;61.86;96345.16;5023790;28;19991;-69
2021/10/14 04:11:03;;;;;;;;;;;;;;;4.55;61.76;96347.06;5023354;28;20643;-68
2021/10/14 04:13:29;;;;;;;;;;;;;;;4.62;61.38;96345.59;5022545;28;19920;-69
2021/10/14 04:15:54;;;;;;;;;;;;;;;4.21;62.49;96349.72;5023387;28;19921;-69
2021/10/14 04:18:19;;;;;;;;;;;;;;;4.38;62.20;96351.88;4960107;28;1845211;-69
2021/10/14 04:20:44;;;;;;;;;;;;;;;4.55;61.38;96350.53;5024188;28;19929;-69
2021/10/14 04:23:10;;;;;;;;;;;;;;;4.29;62.29;96345.50;5024160;28;20337;-68
2021/10/14 04:25:35;;;;;;;;;;;;;;;4.42;62.50;96345.38;5022979;28;19909;-67
2021/10/14 04:28:01;;;;;;;;;;;;;;;4.22;62.38;96356.66;5024498;28;20016;-67
2021/10/14 04:30:26;;;;;;;;;;;;;;;3.84;64.00;96346.31;5023221;28;20004;-67
2021/10/14 04:32:52;;;;;;;;;;;;;;;3.58;65.01;96335.16;5024340;28;20450;-67
2021/10/14 04:35:17;;;;;;;;;;;;;;;3.25;66.23;96337.53;5022785;28;19913;-69
2021/10/14 04:37:42;;;;;;;;;;;;;;;3.09;66.32;96345.75;5024890;28;19959;-67
2021/10/14 04:40:08;;;;;;;;;;;;;;;3.57;64.71;96336.94;5022362;28;20348;-67
2021/10/14 04:42:33;;;;;;;;;;;;;;;3.34;65.29;96336.00;5023218;28;19949;-69
2021/10/14 04:44:59;;;;;;;;;;;;;;;3.34;66.35;96336.88;5024271;28;19967;-69
2021/10/14 04:47:24;;;;;;;;;;;;;;;3.05;67.41;96342.47;5023013;28;19933;-69
2021/10/14 04:49:49;;;;;;;;;;;;;;;3.22;66.81;96345.66;5024255;28;20405;-68
2021/10/14 04:52:14;;;;;;;;;;;;;;;3.34;65.84;96338.66;5023865;28;20103;-68
2021/10/14 04:54:40;;;;;;;;;;;;;;;3.64;65.32;96340.78;5023928;28;20370;-69
2021/10/14 04:57:05;;;;;;;;;;;;;;;3.26;65.43;96339.19;5022649;28;20173;-69
2021/10/14 04:59:30;;;;;;;;;;;;;;;3.66;65.32;96341.53;5023551;28;20015;-69
2021/10/14 05:01:56;;;;;;;;;;;;;;;3.52;65.21;96339.09;5024230;28;19960;-69
2021/10/14 05:04:21;;;;;;;;;;;;;;;3.28;65.75;96332.91;5023703;28;20313;-67
2021/10/14 05:06:46;;;;;;;;;;;;;;;3.27;66.54;96331.19;5024238;28;20160;-69
2021/10/14 05:09:11;;;;;;;;;;;;;;;2.93;67.20;96335.50;5023473;28;20008;-69
2021/10/14 05:11:37;;;;;;;;;;;;;;;3.24;66.28;96336.72;5023206;28;19921;-68
2021/10/14 05:14:02;;;;;;;;;;;;;;;3.04;66.50;96333.72;5023531;28;19963;-69
2021/10/14 05:16:32;;;;;;;;;;;;;;;2.74;68.37;96345.56;5022114;28;19927;-69
2021/10/14 05:18:57;;;;;;;;;;;;;;;2.86;68.42;96343.81;5023862;28;19924;-69
2021/10/14 05:21:22;;;;;;;;;;;;;;;3.23;66.48;96334.19;5005431;28;19917;-70
2021/10/14 05:23:47;;;;;;;;;;;;;;;2.51;69.93;96344.56;5023508;28;20399;-68
2021/10/14 05:26:13;;;;;;;;;;;;;;;2.36;70.88;96347.34;5023926;28;19918;-69
2021/10/14 05:28:38;;;;;;;;;;;;;;;2.17;71.09;96349.59;5023099;28;19929;-67
2021/10/14 05:31:03;;;;;;;;;;;;;;;1.99;72.58;96356.00;5023013;28;20008;-68
2021/10/14 05:33:28;;;;;;;;;;;;;;;2.04;72.15;96357.47;5023732;28;20430;-68
2021/10/14 05:35:54;;;;;;;;;;;;;;;2.07;72.39;96354.63;5023197;28;19929;-68
2021/10/14 05:38:19;;;;;;;;;;;;;;;2.10;73.29;96359.66;5022182;28;20126;-69
2021/10/14 05:40:45;;;;;;;;;;;;;;;2.33;71.85;96347.56;5022971;28;19917;-69
2021/10/14 05:43:11;;;;;;;;;;;;;;;2.63;70.48;96366.53;5022717;28;19921;-69
2021/10/14 05:45:37;;;;;;;;;;;;;;;2.90;69.12;96355.78;5018599;28;19913;-69
2021/10/14 05:48:02;;;;;;;;;;;;;;;2.44;70.98;96357.31;5014444;28;20413;-69
2021/10/14 05:50:28;;;;;;;;;;;;;;;2.86;69.68;96362.22;5021116;28;19921;-68
2021/10/14 05:52:53;;;;;;;;;;;;;;;2.81;69.49;96368.78;5013513;28;20476;-68
2021/10/14 05:55:18;;;;;;;;;;;;;;;2.85;70.06;96360.56;5014328;28;19952;-68
2021/10/14 05:57:43;;;;;;;;;;;;;;;2.75;71.14;96357.75;5016964;28;19922;-69
2021/10/14 06:00:09;;;;;;;;;;;;;;;2.85;69.46;96357.94;5021744;28;20165;-69
2021/10/14 06:02:34;;;;;;;;;;;;;;;3.46;67.21;96352.69;5019068;28;20016;-69
2021/10/14 06:05:00;;;;;;;;;;;;;;;3.26;67.72;96355.84;5018206;28;20004;-69
2021/10/14 06:07:25;;;;;;;;;;;;;;;3.68;66.78;96358.03;5017133;28;20005;-69
2021/10/14 06:09:51;;;;;;;;;;;;;;;3.52;66.76;96371.53;5015542;28;20424;-68
2021/10/14 06:12:16;;;;;;;;;;;;;;;3.98;65.36;96363.72;5015090;28;20477;-69
2021/10/14 06:14:41;;;;;;;;;;;;;;;3.90;66.25;96369.59;5017210;28;19981;-69
2021/10/14 06:17:07;;;;;;;;;;;;;;;4.16;65.34;96363.25;5018580;28;20084;-69
2021/10/14 06:19:32;;;;;;;;;;;;;;;4.39;64.42;96355.34;5017615;28;20551;-68
2021/10/14 06:21:57;;;;;;;;;;;;;;;4.64;62.93;96359.53;5018682;28;19921;-69
2021/10/14 06:24:22;;;;;;;;;;;;;;;4.34;63.40;96360.97;5017003;28;19925;-69
2021/10/14 06:26:48;;;;;;;;;;;;;;;4.78;62.98;96361.06;5018318;28;19921;-70
2021/10/14 06:29:13;;;;;;;;;;;;;;;4.48;63.15;96359.03;5018350;28;19921;-70
2021/10/14 06:31:38;;;;;;;;;;;;;;;3.82;65.65;96356.16;5018184;28;19925;-70
2021/10/14 06:34:03;;;;;;;;;;;;;;;4.27;64.34;96357.13;5018809;28;19952;-70
2021/10/14 06:36:29;;;;;;;;;;;;;;;4.73;63.27;96365.03;5017991;28;20193;-68
2021/10/14 06:38:54;;;;;;;;;;;;;;;4.60;63.42;96359.88;5018414;28;20005;-69
2021/10/14 06:41:19;;;;;;;;;;;;;;;5.05;61.75;96356.31;5018413;28;19921;-70
2021/10/14 06:43:44;;;;;;;;;;;;;;;5.42;60.65;96355.13;5018101;28;19932;-70
2021/10/14 06:46:10;;;;;;;;;;;;;;;5.57;60.52;96359.13;5007650;28;20320;-70
2021/10/14 06:48:35;;;;;;;;;;;;;;;4.87;62.07;96354.22;5019302;28;19925;-70
2021/10/14 06:51:00;;;;;;;;;;;;;;;4.75;62.84;96363.94;5018788;28;20036;-70
2021/10/14 06:53:26;;;;;;;;;;;;;;;5.29;60.53;96360.56;5017984;28;19921;-69
2021/10/14 06:55:51;;;;;;;;;;;;;;;4.36;63.90;96366.13;5016094;28;20472;-69
2021/10/14 06:58:16;;;;;;;;;;;;;;;4.77;61.61;96362.03;5016573;28;20295;-70
2021/10/14 07:00:41;;;;;;;;;;;;;;;4.73;62.48;96365.03;5017961;28;20301;-70
2021/10/14 07:03:07;;;;;;;;;;;;;;;4.55;62.60;96363.72;5016548;28;19992;-70
2021/10/14 07:05:32;;;;;;;;;;;;;;;4.57;63.23;96366.25;5018356;28;20008;-70
2021/10/14 07:07:57;;;;;;;;;;;;;;;4.97;61.82;96359.56;5014384;28;19935;-70
2021/10/14 07:10:23;;;;;;;;;;;;;;;5.33;61.63;96365.47;5019520;28;19967;-70
2021/10/14 07:12:49;;;;;;;;;;;;;;;5.65;60.92;96360.28;5019937;28;20071;-70
2021/10/14 07:15:14;;;;;;;;;;;;;;;5.44;60.41;96361.94;5021451;28;20019;-70
2021/10/14 07:17:39;;;;;;;;;;;;;;;5.06;61.10;96364.13;5021049;28;20015;-68
2021/10/14 07:20:05;;;;;;;;;;;;;;;4.55;63.59;96369.00;5021819;28;20409;-69
2021/10/14 07:22:30;;;;;;;;;;;;;;;4.35;64.01;96361.81;5021580;28;20366;-69
2021/10/14 07:24:55;;;;;;;;;;;;;;;3.97;65.45;96369.09;5021750;28;20563;-69
2021/10/14 07:27:20;;;;;;;;;;;;;;;4.20;64.72;96364.69;5021436;28;19925;-70
2021/10/14 07:29:46;;;;;;;;;;;;;;;4.42;64.35;96365.66;5021215;28;19924;-70
2021/10/14 07:32:11;;;;;;;;;;;;;;;3.92;65.87;96364.19;5019790;28;19932;-70
2021/10/14 07:34:36;;;;;;;;;;;;;;;3.86;66.62;96362.88;5020770;28;20028;-70
2021/10/14 07:37:02;;;;;;;;;;;;;;;4.01;65.58;96373.19;5021382;28;19918;-70
2021/10/14 07:39:27;;;;;;;;;;;;;;;4.22;65.74;96373.31;5021036;28;19921;-70
2021/10/14 07:41:53;;;;;;;;;;;;;;;4.51;64.33;96364.94;5021878;28;19928;-70
2021/10/14 07:44:18;;;;;;;;;;;;;;;4.53;65.15;96364.81;5023061;28;19925;-70
2021/10/14 07:46:44;;;;;;;;;;;;;;;4.54;63.99;96367.31;5024486;28;19917;-70
2021/10/14 07:49:09;;;;;;;;;;;;;;;4.63;63.69;96365.72;5016834;28;20369;-78
2021/10/14 07:51:37;;;;;;;;;;;;;;;5.05;63.01;96366.84;5023776;28;19932;-79
2021/10/14 07:54:03;;;;;;;;;;;;;;;5.49;61.01;96366.84;5025192;28;20288;-79
2021/10/14 07:56:28;;;;;;;;;;;;;;;5.37;61.51;96363.41;5025316;28;19921;-76
2021/10/14 07:58:53;;;;;;;;;;;;;;;5.73;60.13;96363.13;5007320;28;19917;-77
2021/10/14 08:01:19;;;;;;;;;;;;;;;5.94;59.91;96365.75;5023338;28;20389;-77
2021/10/14 08:03:44;;;;;;;;;;;;;;;5.86;58.89;96365.56;5024770;28;19921;-77
2021/10/14 08:06:10;;;;;;;;;;;;;;;6.46;58.47;96369.34;5007690;28;19913;-77
2021/10/14 08:08:35;;;;;;;;;;;;;;;6.73;57.60;96366.13;5023346;28;20574;-75
2021/10/14 08:11:00;;;;;;;;;;;;;;;6.84;57.01;96373.09;5025342;28;19982;-78
2021/10/14 08:13:26;;;;;;;;;;;;;;;6.85;56.81;96364.22;5022807;28;20350;-77
2021/10/14 08:15:52;;;;;;;;;;;;;;;6.35;58.23;96375.56;5006722;28;20073;-78
2021/10/14 08:18:18;;;;;;;;;;;;;;;6.72;56.61;96372.38;5024436;28;19925;-77
2021/10/14 08:20:43;;;;;;;;;;;;;;;6.59;57.22;96369.13;5022863;28;20302;-78
2021/10/14 08:23:08;;;;;;;;;;;;;;;6.44;57.20;96366.00;5021788;28;20055;-77
2021/10/14 08:25:34;;;;;;;;;;;;;;;6.20;56.54;96370.63;5007052;28;19970;-78
2021/10/14 08:27:59;;;;;;;;;;;;;;;6.91;56.64;96359.34;5023919;28;19928;-78
2021/10/14 08:30:24;;;;;;;;;;;;;;;6.94;55.01;96370.47;5025096;28;19924;-78
2021/10/14 08:32:52;;;;;;;;;;;;;;;7.13;56.17;96358.25;5023886;28;20454;-75
2021/10/14 08:35:17;;;;;;;;;;;;;;;7.41;55.36;96355.75;5022986;28;19995;-77
2021/10/14 08:37:42;;;;;;;;;;;;;;;7.43;54.53;96361.75;5006845;28;19965;-77
2021/10/14 08:40:08;;;;;;;;;;;;;;;7.59;55.52;96360.34;5006157;28;19928;-77
2021/10/14 08:42:33;;;;;;;;;;;;;;;7.61;54.56;96367.19;5024349;28;20358;-78
2021/10/14 08:45:00;;;;;;;;;;;;;;;7.79;53.75;96359.38;5018314;28;19918;-78
2021/10/14 08:47:25;;;;;;;;;;;;;;;7.87;54.00;96366.63;5013793;28;19928;-79
2021/10/14 08:49:51;;;;;;;;;;;;;;;7.95;53.31;96373.03;5024332;28;20102;-78
2021/10/14 08:52:16;;;;;;;;;;;;;;;7.95;53.59;96370.38;5024024;28;19928;-78
2021/10/14 08:54:41;;;;;;;;;;;;;;;7.58;52.96;96370.09;5022642;28;19961;-79
2021/10/14 08:57:07;;;;;;;;;;;;;;;8.02;52.94;96369.66;5022598;28;20009;-78
2021/10/14 08:59:32;;;;;;;;;;;;;;;7.67;54.19;96368.44;5005859;28;19984;-78
2021/10/14 09:02:07;;;;;;;;;;;;;;;8.12;52.72;96361.66;5024039;28;20389;-78
2021/10/14 09:04:33;;;;;;;;;;;;;;;7.86;53.43;96372.06;5023812;28;19924;-78
2021/10/14 09:07:08;;;;;;;;;;;;;;;8.24;52.81;96370.31;5022692;28;19917;-78
2021/10/14 09:09:37;;;;;;;;;;;;;;;8.09;52.56;96369.91;5039216;28;20597;-79
2021/10/14 09:12:03;;;;;;;;;;;;;;;6.69;56.28;96375.31;5020816;28;19918;-79
2021/10/14 09:14:29;;;;;;;;;;;;;;;7.71;53.79;96368.97;4999163;28;19921;-79
2021/10/14 09:16:54;;;;;;;;;;;;;;;7.94;53.39;96369.53;4996000;28;20166;-78
2021/10/14 09:19:20;;;;;;;;;;;;;;;8.05;52.80;96361.41;5006249;28;19917;-77
2021/10/14 09:21:46;;;;;;;;;;;;;;;7.95;53.46;96362.44;5022310;28;19915;-77
2021/10/14 09:24:32;;;;;;;;;;;;;;;7.51;55.31;96368.97;5021891;28;19997;-77
2021/10/14 09:26:58;;;;;;;;;;;;;;;7.30;54.75;96369.97;5019362;28;20645;-77
2021/10/14 09:29:25;;;;;;;;;;;;;;;8.11;53.37;96367.13;5021874;28;19997;-77
2021/10/14 09:32:00;;;;;;;;;;;;;;;7.38;54.69;96359.50;5005336;28;20473;-78
2021/10/14 09:34:28;;;;;;;;;;;;;;;7.86;54.30;96362.28;5023248;28;19987;-77
2021/10/14 09:36:54;;;;;;;;;;;;;;;7.93;54.03;96362.56;5021438;28;20480;-77
2021/10/14 09:39:20;;;;;;;;;;;;;;;7.69;55.14;96365.63;5023182;28;20000;-77
2021/10/14 09:41:45;;;;;;;;;;;;;;;7.75;54.77;96365.09;5023336;28;19966;-77
2021/10/14 09:44:19;;;;;;;;;;;;;;;7.88;54.34;96359.50;5021607;28;20458;-77
2021/10/14 09:46:54;;;;;;;;;;;;;;;7.91;55.12;96356.56;5006059;28;19929;-78
2021/10/14 09:49:21;;;;;;;;;;;;;;;7.89;55.01;96353.22;5021459;28;19921;-79
2021/10/14 09:51:46;;;;;;;;;;;;;;;7.63;54.70;96359.09;5023378;28;19917;-77
2021/10/14 09:54:11;;;;;;;;;;;;;;;8.05;54.19;96361.41;5023147;28;19928;-79
2021/10/14 09:56:37;;;;;;;;;;;;;;;8.29;53.32;96356.59;5025189;28;20019;-79
2021/10/14 09:59:02;;;;;;;;;;;;;;;8.19;53.01;96356.63;5025580;28;20306;-79
2021/10/14 10:01:28;;;;;;;;;;;;;;;7.73;54.10;96362.56;5010611;28;19913;-80
2021/10/14 10:03:54;;;;;;;;;;;;;;;8.17;53.70;96358.59;5024425;28;20137;-79
2021/10/14 10:06:22;;;;;;;;;;;;;;;7.69;55.14;96355.88;5007813;28;20300;-79
2021/10/14 10:08:47;;;;;;;;;;;;;;;8.01;54.04;96364.50;5023755;28;19973;-79
2021/10/14 10:11:13;;;;;;;;;;;;;;;7.45;56.23;96362.44;5023057;28;19921;-76
2021/10/14 10:13:51;;;;;;;;;;;;;;;8.08;54.12;96360.28;5023513;28;20015;-78
2021/10/14 10:16:20;;;;;;;;;;;;;;;8.41;53.42;96350.13;5011065;28;20411;-78
2021/10/14 10:18:49;;;;;;;;;;;;;;;8.64;52.64;96360.34;5003370;28;20354;-78
2021/10/14 10:21:29;;;;;;;;;;;;;;;8.30;53.50;96359.09;5035371;28;19984;-78
2021/10/14 10:23:55;;;;;;;;;;;;;;;8.42;53.36;96358.91;5010516;28;20390;-78
2021/10/14 10:26:36;;;;;;;;;;;;;;;7.87;54.03;96356.03;5021627;28;19971;-78
2021/10/14 10:29:02;;;;;;;;;;;;;;;8.05;54.60;96358.75;5021653;28;19921;-79
2021/10/14 10:31:53;;;;;;;;;;;;;;;8.38;54.04;96361.03;5004751;28;20039;-78
2021/10/14 10:37:12;;;;;;;;;;;;;;;7.41;56.77;96359.25;5022633;28;20200;-78
2021/10/14 10:39:49;;;;;;;;;;;;;;;8.18;54.75;96358.44;5022433;28;19974;-79
2021/10/14 10:42:26;;;;;;;;;;;;;;;6.90;59.07;96361.13;5022940;28;19925;-78
2021/10/14 10:44:51;;;;;;;;;;;;;;;7.97;55.40;96348.03;5004654;28;19928;-79
2021/10/14 10:47:36;;;;;;;;;;;;;;;8.36;54.78;96354.22;5025475;28;19917;-78
2021/10/14 10:50:02;;;;;;;;;;;;;;;8.38;54.26;96361.03;5009860;28;19917;-78
2021/10/14 10:52:31;;;;;;;;;;;;;;;8.52;54.28;96351.75;5025686;28;19928;-79
2021/10/14 10:54:56;;;;;;;;;;;;;;;8.38;54.34;96353.06;5024409;28;20020;-78
2021/10/14 10:57:40;;;;;;;;;;;;;;;8.70;53.40;96348.31;5026137;28;19956;-78
2021/10/14 11:00:06;;;;;;;;;;;;;;;8.68;53.35;96347.63;5026515;28;20019;-79
2021/10/14 11:02:31;;;;;;;;;;;;;;;8.65;53.96;96342.59;5024911;28;20023;-77
2021/10/14 11:04:56;;;;;;;;;;;;;;;8.53;54.23;96341.97;5025233;28;19928;-79
2021/10/14 11:07:23;;;;;;;;;;;;;;;8.29;54.69;96330.06;5024540;28;20466;-78
2021/10/14 11:09:48;;;;;;;;;;;;;;;8.35;55.12;96334.78;5024900;28;20348;-78
2021/10/14 11:12:17;;;;;;;;;;;;;;;7.84;55.79;96332.44;5025470;28;19921;-77
2021/10/14 11:14:42;;;;;;;;;;;;;;;7.33;57.51;96337.91;5024619;28;19968;-63
2021/10/14 11:17:11;;;;;;;;;;;;;;;7.51;56.91;96337.19;5025425;28;19968;-76
2021/10/14 11:19:39;;;;;;;;;;;;;;;7.83;56.03;96329.94;5007814;28;20176;-78
2021/10/14 11:22:14;;;;;;;;;;;;;;;6.78;59.93;96341.91;5024413;28;19960;-79
2021/10/14 11:24:45;;;;;;;;;;;;;;;6.45;60.71;96341.19;5024285;28;19917;-77
2021/10/14 11:27:14;;;;;;;;;;;;;;;7.63;56.81;96329.94;5024019;28;20327;-78
2021/10/14 11:29:39;;;;;;;;;;;;;;;7.89;57.06;96321.41;5024678;28;19916;-76
2021/10/14 11:32:07;;;;;;;;;;;;;;;7.59;57.84;96324.09;5023858;28;20381;-77
2021/10/14 11:34:33;;;;;;;;;;;;;;;8.10;55.71;96323.00;5008422;28;19924;-76
2021/10/14 11:36:59;;;;;;;;;;;;;;;8.25;56.11;96321.56;5025272;28;19947;-77
2021/10/14 11:39:39;;;;;;;;;;;;;;;8.16;55.72;96319.81;5023949;28;20012;-77
2021/10/14 11:42:11;;;;;;;;;;;;;;;8.12;56.27;96315.72;5023969;28;19909;-77
2021/10/14 11:44:40;;;;;;;;;;;;;;;8.44;55.39;96311.84;5025285;28;20314;-78
2021/10/14 11:47:06;;;;;;;;;;;;;;;8.46;55.48;96311.72;5024070;28;19947;-78
2021/10/14 11:49:32;;;;;;;;;;;;;;;8.34;55.20;96311.91;5025584;28;19917;-78
2021/10/14 11:52:00;;;;;;;;;;;;;;;8.79;54.22;96304.09;5025308;28;19924;-78
2021/10/14 11:54:26;;;;;;;;;;;;;;;8.44;55.97;96303.91;5022734;28;19925;-78
2021/10/14 11:56:52;;;;;;;;;;;;;;;8.95;52.96;96295.50;5023605;28;19987;-78
2021/10/14 11:59:18;;;;;;;;;;;;;;;7.98;56.88;96295.81;5023521;28;19979;-78
2021/10/14 12:01:48;;;;;;;;;;;;;;;9.13;52.92;96295.50;5024022;28;19909;-79
2021/10/14 12:04:15;;;;;;;;;;;;;;;8.38;55.83;96292.06;5006598;28;20382;-79
2021/10/14 12:06:40;;;;;;;;;;;;;;;8.91;53.65;96292.28;5024303;28;20398;-79
2021/10/14 12:09:05;;;;;;;;;;;;;;;9.21;53.44;96292.06;5023538;28;19936;-79
2021/10/14 12:11:31;;;;;;;;;;;;;;;8.92;53.94;96288.66;5006922;28;20381;-79
2021/10/14 12:13:56;;;;;;;;;;;;;;;9.37;53.09;96285.22;5023813;28;20398;-79
2021/10/14 12:16:21;;;;;;;;;;;;;;;8.69;54.42;96288.22;5025262;28;19925;-78
2021/10/14 12:18:46;;;;;;;;;;;;;;;8.59;54.92;96282.13;5025225;28;19917;-79
2021/10/14 12:21:27;;;;;;;;;;;;;;;7.54;59.28;96290.06;5024270;28;19921;-78
2021/10/14 12:24:03;;;;;;;;;;;;;;;9.03;54.55;96279.66;5024867;28;19917;-79
2021/10/14 12:26:32;;;;;;;;;;;;;;;9.14;54.31;96275.06;5008975;28;20007;-79
2021/10/14 12:29:36;;;;;;;;;;;;;;;9.52;53.99;96273.06;5025445;28;19925;-79
2021/10/14 12:32:07;;;;;;;;;;;;;;;10.03;52.47;96271.56;4994088;28;20423;-79
2021/10/14 12:34:59;;;;;;;;;;;;;;;10.01;52.29;96271.72;5024220;28;19913;-79
2021/10/14 12:37:31;;;;;;;;;;;;;;;9.36;54.68;96278.25;5010234;28;19921;-79
2021/10/14 12:40:08;;;;;;;;;;;;;;;9.38;55.21;96263.00;5026017;28;20396;-79
2021/10/14 12:43:03;;;;;;;;;;;;;;;9.76;54.04;96262.75;5027607;28;19921;-79
2021/10/14 12:45:35;;;;;;;;;;;;;;;8.91;56.41;96256.94;5019849;28;20085;-80
2021/10/14 12:48:16;;;;;;;;;;;;;;;9.82;54.00;96256.78;5022914;28;20386;-79
2021/10/14 12:51:19;;;;;;;;;;;;;;;9.55;54.41;96256.81;5026509;28;20008;-80
2021/10/14 12:53:45;;;;;;;;;;;;;;;9.25;56.18;96253.59;5023074;28;19997;-79
2021/10/14 12:56:11;;;;;;;;;;;;;;;9.30;55.71;96253.13;5018322;28;19994;-78
2021/10/14 12:58:37;;;;;;;;;;;;;;;9.08;56.76;96255.28;5006905;28;20130;-78